セントジョンズ の空港の天気 - METARとTAF

VCバード国際空港 ( TAPA / ANU ) - アンティグア・バーブーダ セントジョンズ (アンティグア島)
飛行場実況気象(Metar)
観測時間04/24 21:00 AST (04/25 01:00 UTC)
風向・風速東 2m/s
視程10km以上
天気現象
少しの雲 雲底高度 550m
気温25℃
湿度78%
気圧1015hPa
METARTAPA 250100Z 10004KT 9999 FEW018 25/21 Q1015 NOSIG
過去の天気等 Google飛行場航空写真 Wunderground天気予報

過去48時間のMETAR

飛行場予報(TAF)
発表時間: 4/24 19:00 AST (4/24 23:00 UTC)
予報対象時間: 24日20時 AST ~ 25日20時 AST
風向・風速東北東 4m/s
視程10km以上
全天の4割程度の雲 雲底高度 550m
TAF TAPA 242300Z 2500/2524 07008KT 9999 SCT018